sensor_id;sensor_type;location;lat;lon;timestamp;P1;durP1;ratioP1;P2;durP2;ratioP2
58581;SDS011;44361;51.476;5.700;2022-11-20T00:00:51;20.90;;;11.50;;
58581;SDS011;44361;51.476;5.700;2022-11-20T00:03:16;20.20;;;10.40;;
58581;SDS011;44361;51.476;5.700;2022-11-20T00:05:42;19.10;;;10.52;;
58581;SDS011;44361;51.476;5.700;2022-11-20T00:08:08;19.05;;;10.40;;
58581;SDS011;44361;51.476;5.700;2022-11-20T00:10:35;23.13;;;11.20;;
58581;SDS011;44361;51.476;5.700;2022-11-20T00:13:02;20.33;;;11.45;;
58581;SDS011;44361;51.476;5.700;2022-11-20T00:15:27;20.80;;;10.95;;
58581;SDS011;44361;51.476;5.700;2022-11-20T00:17:53;25.13;;;11.93;;
58581;SDS011;44361;51.476;5.700;2022-11-20T00:20:18;21.27;;;11.70;;
58581;SDS011;44361;51.476;5.700;2022-11-20T00:22:44;23.70;;;12.10;;
58581;SDS011;44361;51.476;5.700;2022-11-20T00:25:09;25.65;;;12.38;;
58581;SDS011;44361;51.476;5.700;2022-11-20T00:27:36;21.42;;;11.77;;
58581;SDS011;44361;51.476;5.700;2022-11-20T00:30:01;21.60;;;11.75;;
58581;SDS011;44361;51.476;5.700;2022-11-20T00:32:28;22.33;;;12.50;;
58581;SDS011;44361;51.476;5.700;2022-11-20T00:34:54;23.48;;;12.98;;
58581;SDS011;44361;51.476;5.700;2022-11-20T00:37:19;25.73;;;12.27;;
58581;SDS011;44361;51.476;5.700;2022-11-20T00:39:45;24.48;;;11.77;;
58581;SDS011;44361;51.476;5.700;2022-11-20T00:42:10;26.40;;;12.93;;
58581;SDS011;44361;51.476;5.700;2022-11-20T00:44:36;24.10;;;12.27;;
58581;SDS011;44361;51.476;5.700;2022-11-20T00:47:01;21.08;;;11.88;;
58581;SDS011;44361;51.476;5.700;2022-11-20T00:49:27;26.00;;;12.98;;
58581;SDS011;44361;51.476;5.700;2022-11-20T00:51:52;27.35;;;12.80;;
58581;SDS011;44361;51.476;5.700;2022-11-20T00:54:18;25.33;;;12.25;;
58581;SDS011;44361;51.476;5.700;2022-11-20T00:56:43;27.90;;;12.40;;
58581;SDS011;44361;51.476;5.700;2022-11-20T00:59:09;29.90;;;13.18;;
58581;SDS011;44361;51.476;5.700;2022-11-20T01:01:35;29.20;;;13.55;;
58581;SDS011;44361;51.476;5.700;2022-11-20T01:04:02;25.90;;;13.38;;
58581;SDS011;44361;51.476;5.700;2022-11-20T01:06:35;25.05;;;12.20;;
58581;SDS011;44361;51.476;5.700;2022-11-20T01:09:03;24.40;;;12.55;;
58581;SDS011;44361;51.476;5.700;2022-11-20T01:11:33;26.55;;;13.10;;
58581;SDS011;44361;51.476;5.700;2022-11-20T01:14:01;29.05;;;14.07;;
58581;SDS011;44361;51.476;5.700;2022-11-20T01:16:29;25.92;;;13.07;;
58581;SDS011;44361;51.476;5.700;2022-11-20T01:18:57;26.25;;;12.70;;
58581;SDS011;44361;51.476;5.700;2022-11-20T01:21:26;26.92;;;13.35;;
58581;SDS011;44361;51.476;5.700;2022-11-20T01:23:53;26.98;;;13.18;;
58581;SDS011;44361;51.476;5.700;2022-11-20T01:26:26;25.73;;;13.30;;
58581;SDS011;44361;51.476;5.700;2022-11-20T01:31:24;30.10;;;13.18;;
58581;SDS011;44361;51.476;5.700;2022-11-20T01:33:52;28.50;;;13.15;;
58581;SDS011;44361;51.476;5.700;2022-11-20T01:36:20;26.83;;;13.85;;
58581;SDS011;44361;51.476;5.700;2022-11-20T01:38:48;28.25;;;13.77;;
58581;SDS011;44361;51.476;5.700;2022-11-20T01:41:17;27.63;;;13.70;;
58581;SDS011;44361;51.476;5.700;2022-11-20T01:44:01;29.88;;;14.27;;
58581;SDS011;44361;51.476;5.700;2022-11-20T01:46:28;30.90;;;13.40;;
58581;SDS011;44361;51.476;5.700;2022-11-20T01:48:59;27.27;;;14.20;;
58581;SDS011;44361;51.476;5.700;2022-11-20T01:54:07;30.67;;;14.40;;
58581;SDS011;44361;51.476;5.700;2022-11-20T01:56:38;27.15;;;13.38;;
58581;SDS011;44361;51.476;5.700;2022-11-20T01:59:07;28.17;;;13.60;;
58581;SDS011;44361;51.476;5.700;2022-11-20T02:01:35;27.80;;;13.80;;
58581;SDS011;44361;51.476;5.700;2022-11-20T02:04:01;31.70;;;13.57;;
58581;SDS011;44361;51.476;5.700;2022-11-20T02:06:47;30.90;;;14.48;;
58581;SDS011;44361;51.476;5.700;2022-11-20T02:09:16;31.90;;;13.95;;
58581;SDS011;44361;51.476;5.700;2022-11-20T02:11:42;30.83;;;13.88;;
58581;SDS011;44361;51.476;5.700;2022-11-20T02:14:08;28.27;;;14.23;;
58581;SDS011;44361;51.476;5.700;2022-11-20T02:16:39;31.85;;;14.80;;
58581;SDS011;44361;51.476;5.700;2022-11-20T02:19:09;34.65;;;15.70;;
58581;SDS011;44361;51.476;5.700;2022-11-20T02:21:48;28.42;;;14.13;;
58581;SDS011;44361;51.476;5.700;2022-11-20T02:24:25;29.13;;;14.55;;
58581;SDS011;44361;51.476;5.700;2022-11-20T02:26:54;26.73;;;12.82;;
58581;SDS011;44361;51.476;5.700;2022-11-20T02:32:20;30.60;;;14.52;;
58581;SDS011;44361;51.476;5.700;2022-11-20T02:34:47;28.38;;;14.35;;
58581;SDS011;44361;51.476;5.700;2022-11-20T02:37:12;30.20;;;14.48;;
58581;SDS011;44361;51.476;5.700;2022-11-20T02:39:39;31.05;;;14.98;;
58581;SDS011;44361;51.476;5.700;2022-11-20T02:42:06;32.38;;;15.48;;
58581;SDS011;44361;51.476;5.700;2022-11-20T02:44:32;28.50;;;14.45;;
58581;SDS011;44361;51.476;5.700;2022-11-20T02:46:57;31.67;;;14.50;;
58581;SDS011;44361;51.476;5.700;2022-11-20T02:49:24;30.33;;;14.85;;
58581;SDS011;44361;51.476;5.700;2022-11-20T02:51:50;31.17;;;15.27;;
58581;SDS011;44361;51.476;5.700;2022-11-20T02:54:16;31.02;;;14.48;;
58581;SDS011;44361;51.476;5.700;2022-11-20T02:56:41;31.55;;;15.43;;
58581;SDS011;44361;51.476;5.700;2022-11-20T02:59:07;30.73;;;14.23;;
58581;SDS011;44361;51.476;5.700;2022-11-20T03:01:33;32.10;;;15.18;;
58581;SDS011;44361;51.476;5.700;2022-11-20T03:03:58;29.63;;;14.98;;
58581;SDS011;44361;51.476;5.700;2022-11-20T03:06:24;28.05;;;13.90;;
58581;SDS011;44361;51.476;5.700;2022-11-20T03:08:49;33.30;;;14.75;;
58581;SDS011;44361;51.476;5.700;2022-11-20T03:11:15;30.70;;;14.55;;
58581;SDS011;44361;51.476;5.700;2022-11-20T03:13:41;27.67;;;14.02;;
58581;SDS011;44361;51.476;5.700;2022-11-20T03:16:11;32.40;;;15.10;;
58581;SDS011;44361;51.476;5.700;2022-11-20T03:18:39;30.52;;;14.23;;
58581;SDS011;44361;51.476;5.700;2022-11-20T03:21:05;30.33;;;15.10;;
58581;SDS011;44361;51.476;5.700;2022-11-20T03:23:31;31.05;;;14.18;;
58581;SDS011;44361;51.476;5.700;2022-11-20T03:26:07;29.83;;;15.18;;
58581;SDS011;44361;51.476;5.700;2022-11-20T03:28:32;27.33;;;13.68;;
58581;SDS011;44361;51.476;5.700;2022-11-20T03:30:58;28.67;;;14.32;;
58581;SDS011;44361;51.476;5.700;2022-11-20T03:33:29;28.27;;;15.07;;
58581;SDS011;44361;51.476;5.700;2022-11-20T03:35:54;31.30;;;15.32;;
58581;SDS011;44361;51.476;5.700;2022-11-20T03:38:25;30.95;;;15.20;;
58581;SDS011;44361;51.476;5.700;2022-11-20T03:40:57;27.52;;;13.80;;
58581;SDS011;44361;51.476;5.700;2022-11-20T03:43:23;29.77;;;14.27;;
58581;SDS011;44361;51.476;5.700;2022-11-20T03:45:49;31.60;;;14.73;;
58581;SDS011;44361;51.476;5.700;2022-11-20T03:48:14;29.00;;;14.40;;
58581;SDS011;44361;51.476;5.700;2022-11-20T03:50:40;27.05;;;14.38;;
58581;SDS011;44361;51.476;5.700;2022-11-20T03:53:05;24.10;;;13.27;;
58581;SDS011;44361;51.476;5.700;2022-11-20T03:55:31;31.17;;;14.60;;
58581;SDS011;44361;51.476;5.700;2022-11-20T03:57:56;27.90;;;13.82;;
58581;SDS011;44361;51.476;5.700;2022-11-20T04:00:22;26.55;;;13.98;;
58581;SDS011;44361;51.476;5.700;2022-11-20T04:02:47;30.45;;;13.15;;
58581;SDS011;44361;51.476;5.700;2022-11-20T04:05:13;26.90;;;14.32;;
58581;SDS011;44361;51.476;5.700;2022-11-20T04:07:38;26.63;;;13.98;;
58581;SDS011;44361;51.476;5.700;2022-11-20T04:10:04;25.25;;;13.60;;
58581;SDS011;44361;51.476;5.700;2022-11-20T04:12:33;28.75;;;14.13;;
58581;SDS011;44361;51.476;5.700;2022-11-20T04:14:58;31.17;;;14.07;;
58581;SDS011;44361;51.476;5.700;2022-11-20T04:17:24;30.10;;;14.75;;
58581;SDS011;44361;51.476;5.700;2022-11-20T04:19:50;29.60;;;14.38;;
58581;SDS011;44361;51.476;5.700;2022-11-20T04:22:15;27.65;;;13.52;;
58581;SDS011;44361;51.476;5.700;2022-11-20T04:24:41;26.52;;;13.23;;
58581;SDS011;44361;51.476;5.700;2022-11-20T04:27:06;30.50;;;14.18;;
58581;SDS011;44361;51.476;5.700;2022-11-20T04:29:32;30.95;;;14.40;;
58581;SDS011;44361;51.476;5.700;2022-11-20T04:31:57;28.90;;;14.50;;
58581;SDS011;44361;51.476;5.700;2022-11-20T04:34:23;27.02;;;14.18;;
58581;SDS011;44361;51.476;5.700;2022-11-20T04:36:48;30.23;;;14.18;;
58581;SDS011;44361;51.476;5.700;2022-11-20T04:39:14;28.98;;;14.25;;
58581;SDS011;44361;51.476;5.700;2022-11-20T04:41:40;28.50;;;14.57;;
58581;SDS011;44361;51.476;5.700;2022-11-20T04:44:05;29.80;;;14.77;;
58581;SDS011;44361;51.476;5.700;2022-11-20T04:46:36;28.65;;;14.20;;
58581;SDS011;44361;51.476;5.700;2022-11-20T04:49:04;28.88;;;15.43;;
58581;SDS011;44361;51.476;5.700;2022-11-20T04:51:30;32.35;;;15.18;;
58581;SDS011;44361;51.476;5.700;2022-11-20T04:53:56;30.42;;;15.45;;
58581;SDS011;44361;51.476;5.700;2022-11-20T04:56:21;27.55;;;13.73;;
58581;SDS011;44361;51.476;5.700;2022-11-20T04:58:47;25.77;;;13.30;;
58581;SDS011;44361;51.476;5.700;2022-11-20T05:01:14;29.42;;;14.38;;
58581;SDS011;44361;51.476;5.700;2022-11-20T05:03:42;30.58;;;15.18;;
58581;SDS011;44361;51.476;5.700;2022-11-20T05:06:09;31.50;;;15.90;;
58581;SDS011;44361;51.476;5.700;2022-11-20T05:08:39;30.35;;;14.30;;
58581;SDS011;44361;51.476;5.700;2022-11-20T05:11:07;27.63;;;14.43;;
58581;SDS011;44361;51.476;5.700;2022-11-20T05:13:34;28.45;;;14.00;;
58581;SDS011;44361;51.476;5.700;2022-11-20T05:16:03;34.80;;;15.25;;
58581;SDS011;44361;51.476;5.700;2022-11-20T05:18:30;29.08;;;13.68;;
58581;SDS011;44361;51.476;5.700;2022-11-20T05:20:56;32.95;;;15.23;;
58581;SDS011;44361;51.476;5.700;2022-11-20T05:23:22;27.90;;;14.30;;
58581;SDS011;44361;51.476;5.700;2022-11-20T05:25:51;29.73;;;14.18;;
58581;SDS011;44361;51.476;5.700;2022-11-20T05:28:18;34.88;;;15.15;;
58581;SDS011;44361;51.476;5.700;2022-11-20T05:30:44;33.28;;;16.60;;
58581;SDS011;44361;51.476;5.700;2022-11-20T05:33:09;32.65;;;16.20;;
58581;SDS011;44361;51.476;5.700;2022-11-20T05:35:35;31.77;;;14.82;;
58581;SDS011;44361;51.476;5.700;2022-11-20T05:38:00;30.35;;;14.63;;
58581;SDS011;44361;51.476;5.700;2022-11-20T05:40:27;26.73;;;14.13;;
58581;SDS011;44361;51.476;5.700;2022-11-20T05:42:52;32.28;;;15.85;;
58581;SDS011;44361;51.476;5.700;2022-11-20T05:45:18;29.45;;;14.02;;
58581;SDS011;44361;51.476;5.700;2022-11-20T05:47:43;32.70;;;15.77;;
58581;SDS011;44361;51.476;5.700;2022-11-20T05:50:09;30.05;;;15.90;;
58581;SDS011;44361;51.476;5.700;2022-11-20T05:52:34;32.15;;;15.05;;
58581;SDS011;44361;51.476;5.700;2022-11-20T05:55:00;30.38;;;15.48;;
58581;SDS011;44361;51.476;5.700;2022-11-20T05:57:26;35.45;;;15.32;;
58581;SDS011;44361;51.476;5.700;2022-11-20T05:59:52;26.35;;;14.20;;
58581;SDS011;44361;51.476;5.700;2022-11-20T06:02:17;31.30;;;15.45;;
58581;SDS011;44361;51.476;5.700;2022-11-20T06:04:43;28.38;;;15.23;;
58581;SDS011;44361;51.476;5.700;2022-11-20T06:07:08;32.83;;;15.13;;
58581;SDS011;44361;51.476;5.700;2022-11-20T06:09:34;27.88;;;14.52;;
58581;SDS011;44361;51.476;5.700;2022-11-20T06:11:59;30.90;;;14.95;;
58581;SDS011;44361;51.476;5.700;2022-11-20T06:14:25;32.05;;;15.90;;
58581;SDS011;44361;51.476;5.700;2022-11-20T06:16:51;30.00;;;14.15;;
58581;SDS011;44361;51.476;5.700;2022-11-20T06:19:16;30.23;;;15.15;;
58581;SDS011;44361;51.476;5.700;2022-11-20T06:21:42;29.73;;;15.25;;
58581;SDS011;44361;51.476;5.700;2022-11-20T06:24:11;31.85;;;14.75;;
58581;SDS011;44361;51.476;5.700;2022-11-20T06:26:37;29.60;;;14.02;;
58581;SDS011;44361;51.476;5.700;2022-11-20T06:29:02;29.90;;;14.32;;
58581;SDS011;44361;51.476;5.700;2022-11-20T06:31:28;26.60;;;13.75;;
58581;SDS011;44361;51.476;5.700;2022-11-20T06:33:53;28.15;;;14.15;;
58581;SDS011;44361;51.476;5.700;2022-11-20T06:36:20;29.73;;;14.45;;
58581;SDS011;44361;51.476;5.700;2022-11-20T06:38:46;27.55;;;15.27;;
58581;SDS011;44361;51.476;5.700;2022-11-20T06:41:14;28.80;;;14.43;;
58581;SDS011;44361;51.476;5.700;2022-11-20T06:43:40;27.88;;;14.20;;
58581;SDS011;44361;51.476;5.700;2022-11-20T06:46:06;28.95;;;14.13;;
58581;SDS011;44361;51.476;5.700;2022-11-20T06:48:33;26.45;;;14.80;;
58581;SDS011;44361;51.476;5.700;2022-11-20T06:50:58;26.30;;;13.63;;
58581;SDS011;44361;51.476;5.700;2022-11-20T06:53:24;29.42;;;13.70;;
58581;SDS011;44361;51.476;5.700;2022-11-20T06:55:50;28.33;;;14.02;;
58581;SDS011;44361;51.476;5.700;2022-11-20T06:58:16;31.63;;;14.90;;
58581;SDS011;44361;51.476;5.700;2022-11-20T07:00:42;28.80;;;14.68;;
58581;SDS011;44361;51.476;5.700;2022-11-20T07:03:08;28.23;;;14.02;;
58581;SDS011;44361;51.476;5.700;2022-11-20T07:05:35;28.70;;;14.20;;
58581;SDS011;44361;51.476;5.700;2022-11-20T07:08:01;26.60;;;14.35;;
58581;SDS011;44361;51.476;5.700;2022-11-20T07:10:28;25.92;;;14.18;;
58581;SDS011;44361;51.476;5.700;2022-11-20T07:12:53;26.92;;;14.38;;
58581;SDS011;44361;51.476;5.700;2022-11-20T07:15:20;28.75;;;14.55;;
58581;SDS011;44361;51.476;5.700;2022-11-20T07:17:47;26.77;;;14.70;;
58581;SDS011;44361;51.476;5.700;2022-11-20T07:20:13;26.10;;;13.75;;
58581;SDS011;44361;51.476;5.700;2022-11-20T07:22:39;27.17;;;14.10;;
58581;SDS011;44361;51.476;5.700;2022-11-20T07:25:05;27.35;;;13.85;;
58581;SDS011;44361;51.476;5.700;2022-11-20T07:27:31;30.35;;;14.05;;
58581;SDS011;44361;51.476;5.700;2022-11-20T07:29:57;23.27;;;13.48;;
58581;SDS011;44361;51.476;5.700;2022-11-20T07:32:23;26.25;;;13.18;;
58581;SDS011;44361;51.476;5.700;2022-11-20T07:34:49;24.98;;;14.02;;
58581;SDS011;44361;51.476;5.700;2022-11-20T07:37:14;31.45;;;14.50;;
58581;SDS011;44361;51.476;5.700;2022-11-20T07:39:40;28.25;;;14.88;;
58581;SDS011;44361;51.476;5.700;2022-11-20T07:42:06;27.13;;;15.32;;
58581;SDS011;44361;51.476;5.700;2022-11-20T07:44:33;26.20;;;14.02;;
58581;SDS011;44361;51.476;5.700;2022-11-20T07:46:58;26.38;;;13.88;;
58581;SDS011;44361;51.476;5.700;2022-11-20T07:49:24;26.40;;;13.65;;
58581;SDS011;44361;51.476;5.700;2022-11-20T07:51:50;26.38;;;14.10;;
58581;SDS011;44361;51.476;5.700;2022-11-20T07:54:16;28.58;;;13.80;;
58581;SDS011;44361;51.476;5.700;2022-11-20T07:56:41;28.00;;;14.15;;
58581;SDS011;44361;51.476;5.700;2022-11-20T07:59:07;25.60;;;13.25;;
58581;SDS011;44361;51.476;5.700;2022-11-20T08:01:32;26.50;;;13.30;;
58581;SDS011;44361;51.476;5.700;2022-11-20T08:03:58;24.58;;;14.07;;
58581;SDS011;44361;51.476;5.700;2022-11-20T08:06:23;26.17;;;13.15;;
58581;SDS011;44361;51.476;5.700;2022-11-20T08:08:49;24.83;;;13.75;;
58581;SDS011;44361;51.476;5.700;2022-11-20T08:11:15;28.38;;;14.48;;
58581;SDS011;44361;51.476;5.700;2022-11-20T08:13:59;26.25;;;13.63;;
58581;SDS011;44361;51.476;5.700;2022-11-20T08:16:38;24.92;;;13.73;;
58581;SDS011;44361;51.476;5.700;2022-11-20T08:19:08;28.70;;;13.73;;
58581;SDS011;44361;51.476;5.700;2022-11-20T08:21:33;28.73;;;14.70;;
58581;SDS011;44361;51.476;5.700;2022-11-20T08:23:59;26.67;;;13.85;;
58581;SDS011;44361;51.476;5.700;2022-11-20T08:26:25;25.35;;;14.25;;
58581;SDS011;44361;51.476;5.700;2022-11-20T08:28:57;26.27;;;13.77;;
58581;SDS011;44361;51.476;5.700;2022-11-20T08:31:23;27.67;;;13.48;;
58581;SDS011;44361;51.476;5.700;2022-11-20T08:33:51;29.10;;;14.63;;
58581;SDS011;44361;51.476;5.700;2022-11-20T08:36:17;28.30;;;13.90;;
58581;SDS011;44361;51.476;5.700;2022-11-20T08:38:46;24.42;;;14.15;;
58581;SDS011;44361;51.476;5.700;2022-11-20T08:41:13;25.88;;;13.50;;
58581;SDS011;44361;51.476;5.700;2022-11-20T08:43:58;25.98;;;13.23;;
58581;SDS011;44361;51.476;5.700;2022-11-20T08:46:26;29.67;;;13.77;;
58581;SDS011;44361;51.476;5.700;2022-11-20T08:48:53;29.23;;;14.70;;
58581;SDS011;44361;51.476;5.700;2022-11-20T08:51:19;26.50;;;13.35;;
58581;SDS011;44361;51.476;5.700;2022-11-20T08:53:45;22.95;;;12.27;;
58581;SDS011;44361;51.476;5.700;2022-11-20T08:56:13;24.35;;;13.85;;
58581;SDS011;44361;51.476;5.700;2022-11-20T08:58:39;30.02;;;14.65;;
58581;SDS011;44361;51.476;5.700;2022-11-20T09:01:04;30.85;;;15.90;;
58581;SDS011;44361;51.476;5.700;2022-11-20T09:03:30;32.65;;;17.75;;
58581;SDS011;44361;51.476;5.700;2022-11-20T09:05:56;35.83;;;18.23;;
58581;SDS011;44361;51.476;5.700;2022-11-20T09:08:30;41.25;;;19.63;;
58581;SDS011;44361;51.476;5.700;2022-11-20T09:10:56;35.03;;;18.60;;
58581;SDS011;44361;51.476;5.700;2022-11-20T09:13:23;39.63;;;19.38;;
58581;SDS011;44361;51.476;5.700;2022-11-20T09:15:52;34.97;;;18.98;;
58581;SDS011;44361;51.476;5.700;2022-11-20T09:18:19;38.90;;;19.60;;
58581;SDS011;44361;51.476;5.700;2022-11-20T09:20:45;34.75;;;17.95;;
58581;SDS011;44361;51.476;5.700;2022-11-20T09:23:10;34.97;;;17.70;;
58581;SDS011;44361;51.476;5.700;2022-11-20T09:25:36;37.35;;;17.92;;
58581;SDS011;44361;51.476;5.700;2022-11-20T09:28:02;33.50;;;18.10;;
58581;SDS011;44361;51.476;5.700;2022-11-20T09:30:27;41.25;;;19.55;;
58581;SDS011;44361;51.476;5.700;2022-11-20T09:32:53;37.50;;;18.77;;
58581;SDS011;44361;51.476;5.700;2022-11-20T09:35:18;38.33;;;20.50;;
58581;SDS011;44361;51.476;5.700;2022-11-20T09:37:44;40.22;;;20.58;;
58581;SDS011;44361;51.476;5.700;2022-11-20T09:40:20;36.53;;;19.30;;
58581;SDS011;44361;51.476;5.700;2022-11-20T09:50:59;39.40;;;17.98;;
58581;SDS011;44361;51.476;5.700;2022-11-20T09:54:17;32.72;;;17.10;;
58581;SDS011;44361;51.476;5.700;2022-11-20T09:56:54;40.97;;;16.90;;
58581;SDS011;44361;51.476;5.700;2022-11-20T10:07:44;41.30;;;18.48;;
58581;SDS011;44361;51.476;5.700;2022-11-20T10:13:28;44.25;;;19.58;;
58581;SDS011;44361;51.476;5.700;2022-11-20T10:16:09;44.05;;;20.25;;
58581;SDS011;44361;51.476;5.700;2022-11-20T10:21:23;51.40;;;20.70;;
58581;SDS011;44361;51.476;5.700;2022-11-20T10:27:06;54.45;;;19.90;;
58581;SDS011;44361;51.476;5.700;2022-11-20T10:29:41;54.63;;;21.00;;
58581;SDS011;44361;51.476;5.700;2022-11-20T10:32:16;54.25;;;21.33;;
58581;SDS011;44361;51.476;5.700;2022-11-20T10:34:50;52.45;;;20.40;;
58581;SDS011;44361;51.476;5.700;2022-11-20T10:37:25;52.38;;;21.42;;
58581;SDS011;44361;51.476;5.700;2022-11-20T10:45:13;64.88;;;25.52;;
58581;SDS011;44361;51.476;5.700;2022-11-20T10:47:54;53.35;;;21.58;;
58581;SDS011;44361;51.476;5.700;2022-11-20T10:50:34;49.88;;;22.13;;
58581;SDS011;44361;51.476;5.700;2022-11-20T10:53:08;46.20;;;22.23;;
58581;SDS011;44361;51.476;5.700;2022-11-20T10:55:40;52.58;;;23.05;;
58581;SDS011;44361;51.476;5.700;2022-11-20T11:01:14;60.83;;;23.33;;
58581;SDS011;44361;51.476;5.700;2022-11-20T11:03:41;54.50;;;21.63;;
58581;SDS011;44361;51.476;5.700;2022-11-20T11:06:15;54.03;;;21.48;;
58581;SDS011;44361;51.476;5.700;2022-11-20T11:08:45;53.00;;;21.38;;
58581;SDS011;44361;51.476;5.700;2022-11-20T11:13:47;49.78;;;21.35;;
58581;SDS011;44361;51.476;5.700;2022-11-20T11:16:20;63.63;;;21.90;;
58581;SDS011;44361;51.476;5.700;2022-11-20T11:18:48;64.88;;;21.88;;
58581;SDS011;44361;51.476;5.700;2022-11-20T11:21:13;54.80;;;22.85;;
58581;SDS011;44361;51.476;5.700;2022-11-20T11:23:56;56.53;;;24.35;;
58581;SDS011;44361;51.476;5.700;2022-11-20T11:26:26;55.67;;;23.10;;
58581;SDS011;44361;51.476;5.700;2022-11-20T11:28:57;52.67;;;21.92;;
58581;SDS011;44361;51.476;5.700;2022-11-20T11:31:34;53.90;;;21.42;;
58581;SDS011;44361;51.476;5.700;2022-11-20T11:34:07;53.95;;;21.70;;
58581;SDS011;44361;51.476;5.700;2022-11-20T11:36:37;57.08;;;23.10;;
58581;SDS011;44361;51.476;5.700;2022-11-20T11:39:03;52.08;;;20.83;;
58581;SDS011;44361;51.476;5.700;2022-11-20T11:41:31;49.42;;;20.52;;
58581;SDS011;44361;51.476;5.700;2022-11-20T11:44:02;57.00;;;21.42;;
58581;SDS011;44361;51.476;5.700;2022-11-20T11:47:02;50.08;;;21.85;;
58581;SDS011;44361;51.476;5.700;2022-11-20T11:49:29;50.20;;;22.10;;
58581;SDS011;44361;51.476;5.700;2022-11-20T11:54:44;51.65;;;22.83;;
58581;SDS011;44361;51.476;5.700;2022-11-20T12:00:03;52.85;;;22.20;;
58581;SDS011;44361;51.476;5.700;2022-11-20T12:05:04;51.05;;;22.15;;
58581;SDS011;44361;51.476;5.700;2022-11-20T12:10:40;55.05;;;21.75;;
58581;SDS011;44361;51.476;5.700;2022-11-20T12:15:59;49.00;;;23.45;;
58581;SDS011;44361;51.476;5.700;2022-11-20T12:18:26;55.40;;;22.83;;
58581;SDS011;44361;51.476;5.700;2022-11-20T12:43:25;55.83;;;24.67;;
58581;SDS011;44361;51.476;5.700;2022-11-20T12:46:18;53.85;;;22.77;;
58581;SDS011;44361;51.476;5.700;2022-11-20T12:49:01;59.33;;;24.27;;
58581;SDS011;44361;51.476;5.700;2022-11-20T12:55:16;52.50;;;23.10;;
58581;SDS011;44361;51.476;5.700;2022-11-20T13:00:23;54.38;;;22.95;;
58581;SDS011;44361;51.476;5.700;2022-11-20T13:02:58;59.47;;;23.65;;
58581;SDS011;44361;51.476;5.700;2022-11-20T13:05:34;53.15;;;23.10;;
58581;SDS011;44361;51.476;5.700;2022-11-20T13:08:21;54.28;;;23.60;;
58581;SDS011;44361;51.476;5.700;2022-11-20T13:10:51;55.28;;;24.42;;
58581;SDS011;44361;51.476;5.700;2022-11-20T13:16:14;56.10;;;23.35;;
58581;SDS011;44361;51.476;5.700;2022-11-20T13:18:47;54.88;;;22.30;;
58581;SDS011;44361;51.476;5.700;2022-11-20T13:21:22;47.47;;;21.63;;
58581;SDS011;44361;51.476;5.700;2022-11-20T13:24:06;50.47;;;22.15;;
58581;SDS011;44361;51.476;5.700;2022-11-20T13:26:45;50.65;;;23.23;;
58581;SDS011;44361;51.476;5.700;2022-11-20T13:29:12;54.05;;;23.88;;
58581;SDS011;44361;51.476;5.700;2022-11-20T13:31:46;53.58;;;23.38;;
58581;SDS011;44361;51.476;5.700;2022-11-20T13:34:14;57.90;;;24.88;;
58581;SDS011;44361;51.476;5.700;2022-11-20T13:36:51;119.57;;;51.83;;
58581;SDS011;44361;51.476;5.700;2022-11-20T13:39:29;69.43;;;32.00;;
58581;SDS011;44361;51.476;5.700;2022-11-20T13:42:00;51.03;;;23.65;;
58581;SDS011;44361;51.476;5.700;2022-11-20T13:45:00;59.30;;;24.17;;
58581;SDS011;44361;51.476;5.700;2022-11-20T13:47:27;56.28;;;24.58;;
58581;SDS011;44361;51.476;5.700;2022-11-20T13:49:57;55.97;;;23.38;;
58581;SDS011;44361;51.476;5.700;2022-11-20T13:52:39;66.53;;;23.83;;
58581;SDS011;44361;51.476;5.700;2022-11-20T13:55:50;52.30;;;22.42;;
58581;SDS011;44361;51.476;5.700;2022-11-20T14:01:16;59.35;;;23.90;;
58581;SDS011;44361;51.476;5.700;2022-11-20T14:03:47;58.15;;;24.13;;
58581;SDS011;44361;51.476;5.700;2022-11-20T14:06:23;57.33;;;23.77;;
58581;SDS011;44361;51.476;5.700;2022-11-20T14:08:55;57.67;;;24.63;;
58581;SDS011;44361;51.476;5.700;2022-11-20T14:11:25;53.85;;;25.02;;
58581;SDS011;44361;51.476;5.700;2022-11-20T14:13:59;59.80;;;25.45;;
58581;SDS011;44361;51.476;5.700;2022-11-20T14:16:40;70.80;;;30.63;;
58581;SDS011;44361;51.476;5.700;2022-11-20T14:21:52;51.47;;;23.15;;
58581;SDS011;44361;51.476;5.700;2022-11-20T14:24:20;54.60;;;23.40;;
58581;SDS011;44361;51.476;5.700;2022-11-20T14:26:47;55.08;;;23.52;;
58581;SDS011;44361;51.476;5.700;2022-11-20T14:29:14;54.47;;;23.48;;
58581;SDS011;44361;51.476;5.700;2022-11-20T14:31:44;51.22;;;21.90;;
58581;SDS011;44361;51.476;5.700;2022-11-20T14:34:15;55.15;;;23.55;;
58581;SDS011;44361;51.476;5.700;2022-11-20T14:36:50;54.10;;;23.13;;
58581;SDS011;44361;51.476;5.700;2022-11-20T14:39:21;53.95;;;23.77;;
58581;SDS011;44361;51.476;5.700;2022-11-20T14:41:53;53.22;;;23.95;;
58581;SDS011;44361;51.476;5.700;2022-11-20T14:44:26;51.80;;;23.48;;
58581;SDS011;44361;51.476;5.700;2022-11-20T14:46:55;49.03;;;21.17;;
58581;SDS011;44361;51.476;5.700;2022-11-20T14:49:22;52.17;;;22.50;;
58581;SDS011;44361;51.476;5.700;2022-11-20T14:51:58;54.35;;;23.20;;
58581;SDS011;44361;51.476;5.700;2022-11-20T14:54:25;57.40;;;24.50;;
58581;SDS011;44361;51.476;5.700;2022-11-20T14:56:55;55.75;;;22.85;;
58581;SDS011;44361;51.476;5.700;2022-11-20T14:59:22;61.70;;;22.83;;
58581;SDS011;44361;51.476;5.700;2022-11-20T15:01:54;58.65;;;23.52;;
58581;SDS011;44361;51.476;5.700;2022-11-20T15:04:31;65.05;;;24.98;;
58581;SDS011;44361;51.476;5.700;2022-11-20T15:06:57;66.43;;;23.40;;
58581;SDS011;44361;51.476;5.700;2022-11-20T15:09:24;55.55;;;23.80;;
58581;SDS011;44361;51.476;5.700;2022-11-20T15:11:52;61.53;;;24.30;;
58581;SDS011;44361;51.476;5.700;2022-11-20T15:14:26;64.28;;;24.42;;
58581;SDS011;44361;51.476;5.700;2022-11-20T15:16:53;65.25;;;24.20;;
58581;SDS011;44361;51.476;5.700;2022-11-20T15:19:23;70.22;;;25.88;;
58581;SDS011;44361;51.476;5.700;2022-11-20T15:21:50;67.25;;;26.30;;
58581;SDS011;44361;51.476;5.700;2022-11-20T15:24:16;71.88;;;26.88;;
58581;SDS011;44361;51.476;5.700;2022-11-20T15:26:42;66.55;;;25.90;;
58581;SDS011;44361;51.476;5.700;2022-11-20T15:29:09;74.38;;;27.65;;
58581;SDS011;44361;51.476;5.700;2022-11-20T15:31:36;67.82;;;25.00;;
58581;SDS011;44361;51.476;5.700;2022-11-20T15:34:02;69.32;;;26.30;;
58581;SDS011;44361;51.476;5.700;2022-11-20T15:36:30;66.95;;;25.27;;
58581;SDS011;44361;51.476;5.700;2022-11-20T15:38:55;64.05;;;27.05;;
58581;SDS011;44361;51.476;5.700;2022-11-20T15:41:21;66.85;;;25.85;;
58581;SDS011;44361;51.476;5.700;2022-11-20T15:43:46;73.75;;;27.08;;
58581;SDS011;44361;51.476;5.700;2022-11-20T15:46:16;72.07;;;26.13;;
58581;SDS011;44361;51.476;5.700;2022-11-20T15:48:53;69.50;;;24.42;;
58581;SDS011;44361;51.476;5.700;2022-11-20T15:51:36;74.53;;;26.95;;
58581;SDS011;44361;51.476;5.700;2022-11-20T15:54:13;72.18;;;26.02;;
58581;SDS011;44361;51.476;5.700;2022-11-20T15:56:40;69.57;;;25.52;;
58581;SDS011;44361;51.476;5.700;2022-11-20T15:59:06;65.53;;;25.20;;
58581;SDS011;44361;51.476;5.700;2022-11-20T16:01:31;67.82;;;24.30;;
58581;SDS011;44361;51.476;5.700;2022-11-20T16:03:57;69.90;;;26.45;;
58581;SDS011;44361;51.476;5.700;2022-11-20T16:06:23;79.78;;;25.08;;